Time;durP1;ratioP1;P1;durP2;ratioP2;P2;SDS_P1;SDS_P2;PMS_P1;PMS_P2;Temp;Humidity;BMP_temperature;BMP_pressure;BME280_temperature;BME280_humidity;BME280_pressure;Samples;Min_cycle;Max_cycle;Signal;HPM_P1;HPM_P2
2022/09/28 00:00:00;;;;;;;6.82;2.90;;;;;;;4.84;97.37;99380.66;10401537;28;20128;-81
2022/09/28 00:05:13;;;;;;;6.03;3.17;;;;;;;4.82;97.50;99382.34;10413434;28;20120;-81
2022/09/28 00:10:14;;;;;;;7.82;2.78;;;;;;;4.85;97.46;99371.13;10409970;28;20088;-81
2022/09/28 00:15:16;;;;;;;5.43;2.65;;;;;;;4.90;97.56;99372.09;10410880;28;20051;-81
2022/09/28 00:20:18;;;;;;;8.90;3.25;;;;;;;4.94;97.45;99379.09;10414312;28;20061;-81
2022/09/28 00:25:20;;;;;;;8.23;2.97;;;;;;;5.02;97.40;99376.63;10415194;28;20049;-82
2022/09/28 00:30:22;;;;;;;6.32;2.95;;;;;;;5.09;97.54;99371.56;10396359;28;20117;-83
2022/09/28 00:35:24;;;;;;;8.00;3.25;;;;;;;5.16;97.67;99372.53;10406141;28;20053;-83
2022/09/28 00:40:25;;;;;;;7.47;3.28;;;;;;;5.21;97.61;99359.63;10410923;28;20574;-81
2022/09/28 00:45:27;;;;;;;7.82;2.65;;;;;;;5.25;97.74;99353.63;10398226;28;20049;-81
2022/09/28 00:50:34;;;;;;;7.07;3.42;;;;;;;5.30;97.66;99345.06;10397731;28;20085;-83
2022/09/28 00:55:41;;;;;;;8.35;3.67;;;;;;;5.36;97.76;99348.59;10403597;28;20054;-83
2022/09/28 01:00:43;;;;;;;6.63;3.30;;;;;;;5.40;97.85;99340.03;10406600;28;20049;-82
2022/09/28 01:05:47;;;;;;;6.30;3.38;;;;;;;5.43;97.66;99334.88;10388105;28;20061;-82
2022/09/28 01:10:50;;;;;;;6.90;3.28;;;;;;;5.47;97.80;99332.34;10408204;28;20041;-84
2022/09/28 01:16:03;;;;;;;8.73;3.63;;;;;;;5.54;97.91;99335.03;10407414;28;20103;-81
2022/09/28 01:21:17;;;;;;;9.13;3.25;;;;;;;5.57;97.93;99330.75;10382175;28;20049;-82
2022/09/28 01:26:34;;;;;;;8.50;3.03;;;;;;;5.59;97.98;99326.44;10390146;28;20058;-81
2022/09/28 01:31:42;;;;;;;8.55;3.15;;;;;;;5.60;97.97;99328.22;10392623;28;20045;-83
2022/09/28 01:36:49;;;;;;;7.25;3.75;;;;;;;5.59;97.83;99316.06;10406222;28;20068;-84
2022/09/28 01:41:54;;;;;;;7.72;3.38;;;;;;;5.61;97.83;99313.50;10394256;28;20054;-81
2022/09/28 01:47:03;;;;;;;7.25;3.40;;;;;;;5.61;97.86;99310.88;10394422;28;20113;-81
2022/09/28 01:52:16;;;;;;;10.00;3.60;;;;;;;5.60;97.71;99319.53;10390336;28;20404;-83
2022/09/28 01:57:33;;;;;;;6.15;3.28;;;;;;;5.60;97.83;99312.63;10392247;28;20045;-83
2022/09/28 02:02:41;;;;;;;7.57;3.35;;;;;;;5.61;98.01;99313.50;10386455;28;20046;-82
2022/09/28 02:07:47;;;;;;;5.35;2.80;;;;;;;5.65;98.02;99302.28;10406313;28;20076;-82
2022/09/28 02:13:39;;;;;;;8.10;3.75;;;;;;;5.66;97.90;99304.91;10382095;28;20476;-82
2022/09/28 02:18:42;;;;;;;10.50;3.50;;;;;;;5.68;97.84;99304.94;10371600;28;20057;-81
2022/09/28 02:23:56;;;;;;;7.72;3.00;;;;;;;5.71;98.07;99299.78;10388055;28;20061;-81
2022/09/28 02:28:59;;;;;;;8.25;3.60;;;;;;;5.68;98.00;99294.53;10385323;28;20050;-82
2022/09/28 02:34:00;;;;;;;6.30;3.38;;;;;;;5.65;98.23;99303.16;10387818;28;20521;-82
2022/09/28 02:39:02;;;;;;;6.68;3.55;;;;;;;5.60;98.01;99296.16;10383243;28;20054;-83
2022/09/28 02:44:19;;;;;;;9.00;2.72;;;;;;;5.58;97.98;99303.06;10388371;28;20069;-83
2022/09/28 02:49:36;;;;;;;7.90;3.45;;;;;;;5.59;97.93;99294.44;10393473;28;20694;-81
2022/09/28 02:55:04;;;;;;;5.45;3.05;;;;;;;5.63;97.93;99303.97;10388463;28;20049;-82
2022/09/28 03:00:11;;;;;;;8.50;3.92;;;;;;;5.66;98.12;99297.13;10383088;28;20081;-82
2022/09/28 03:05:21;;;;;;;12.60;4.15;;;;;;;5.74;98.05;99294.63;10386207;28;20516;-81
2022/09/28 03:10:45;;;;;;;8.48;4.18;;;;;;;5.74;98.15;99299.81;10408528;28;20053;-82
2022/09/28 03:15:48;;;;;;;6.93;3.85;;;;;;;5.77;98.21;99301.59;10386045;28;20054;-82
2022/09/28 03:20:51;;;;;;;6.72;3.50;;;;;;;5.81;98.30;99299.03;10384525;28;20049;-81
2022/09/28 03:25:53;;;;;;;7.55;4.00;;;;;;;5.88;98.12;99299.97;10383289;28;20080;-82
2022/09/28 03:30:55;;;;;;;8.65;4.60;;;;;;;5.95;98.08;99294.00;10394271;28;20402;-81
2022/09/28 03:35:57;;;;;;;51.70;18.13;;;;;;;5.96;98.07;99300.97;10394516;28;20053;-81
2022/09/28 03:40:59;;;;;;;37.75;13.68;;;;;;;6.01;98.45;99304.50;10395582;28;20144;-82
2022/09/28 03:46:07;;;;;;;51.83;18.80;;;;;;;6.02;98.20;99305.41;10402330;28;20056;-83
2022/09/28 03:51:15;;;;;;;39.75;14.35;;;;;;;6.05;98.33;99299.34;10396318;28;20061;-82
2022/09/28 03:56:17;;;;;;;16.73;7.18;;;;;;;6.08;98.11;99302.88;10397629;28;20041;-82
2022/09/28 04:01:19;;;;;;;11.98;5.97;;;;;;;6.07;98.09;99303.72;10386023;28;20057;-82
2022/09/28 04:06:22;;;;;;;11.85;5.68;;;;;;;6.05;98.35;99300.22;10402372;28;20099;-83
2022/09/28 04:11:24;;;;;;;12.07;5.28;;;;;;;6.04;98.26;99303.69;10399260;28;20061;-82
2022/09/28 04:16:26;;;;;;;10.35;5.53;;;;;;;6.06;98.20;99301.94;10402509;28;20056;-82
2022/09/28 04:21:36;;;;;;;12.00;5.57;;;;;;;6.10;98.26;99302.88;10404229;28;20049;-82
2022/09/28 04:26:42;;;;;;;11.93;4.72;;;;;;;6.09;98.21;99301.13;10395304;28;20053;-82
2022/09/28 04:31:50;;;;;;;9.65;5.30;;;;;;;6.08;98.21;99299.38;10396559;28;20128;-83
2022/09/28 04:36:53;;;;;;;8.98;4.70;;;;;;;6.07;98.19;99303.72;10413195;28;20174;-83
2022/09/28 04:41:55;;;;;;;10.00;4.88;;;;;;;6.07;98.43;99301.13;10403633;28;20052;-82
2022/09/28 04:46:56;;;;;;;15.35;4.93;;;;;;;6.10;98.17;99302.88;10393946;28;20055;-84
2022/09/28 04:52:22;;;;;;;10.73;5.63;;;;;;;6.09;98.27;99304.59;10385223;28;20057;-83
2022/09/28 04:57:24;;;;;;;11.70;6.30;;;;;;;6.14;98.24;99302.94;10386281;28;20056;-83
2022/09/28 05:02:26;;;;;;;10.45;4.93;;;;;;;6.19;98.25;99298.63;10410739;28;20076;-84
2022/09/28 05:07:46;;;;;;;9.48;5.20;;;;;;;6.23;98.34;99299.56;10393729;28;20053;-84
2022/09/28 05:12:48;;;;;;;9.50;5.05;;;;;;;6.28;98.26;99307.41;10408531;28;20068;-83
2022/09/28 05:17:51;;;;;;;10.40;5.65;;;;;;;6.34;98.39;99312.69;10375733;28;20049;-81
2022/09/28 05:22:59;;;;;;;12.25;5.22;;;;;;;6.40;98.29;99307.53;10385784;28;20491;-80
2022/09/28 05:28:02;;;;;;;9.85;5.18;;;;;;;6.39;98.41;99308.38;10378368;28;20057;-79
2022/09/28 05:33:23;;;;;;;11.57;5.35;;;;;;;6.42;98.32;99305.81;10401334;28;20441;-79
2022/09/28 05:38:36;;;;;;;15.00;5.40;;;;;;;6.48;98.22;99298.06;10381171;28;20528;-80
2022/09/28 05:43:38;;;;;;;12.88;5.50;;;;;;;6.53;98.46;99305.91;10382434;28;20420;-80
2022/09/28 05:48:39;;;;;;;11.57;6.10;;;;;;;6.59;98.24;99305.09;10366229;28;20128;-82
2022/09/28 05:53:41;;;;;;;14.43;6.30;;;;;;;6.64;98.54;99300.84;10389025;28;20240;-81
2022/09/28 05:58:43;;;;;;;12.60;6.65;;;;;;;6.67;98.57;99306.06;10393130;28;20077;-81
2022/09/28 06:03:46;;;;;;;11.40;6.18;;;;;;;6.73;98.52;99304.38;10385050;28;20049;-81
2022/09/28 06:08:48;;;;;;;13.18;7.13;;;;;;;6.78;98.66;99295.75;10400113;28;20081;-80
2022/09/28 06:14:09;;;;;;;13.13;6.45;;;;;;;6.81;99.09;99300.97;10400310;28;20658;-80
2022/09/28 06:19:11;;;;;;;16.67;7.82;;;;;;;6.87;98.84;99309.69;10403609;28;20386;-80
2022/09/28 06:24:34;;;;;;;14.50;7.82;;;;;;;6.90;98.75;99317.56;10394337;28;20333;-82
2022/09/28 06:29:35;;;;;;;15.02;8.10;;;;;;;6.93;98.90;99323.63;10381672;28;20041;-81
2022/09/28 06:34:37;;;;;;;14.50;7.40;;;;;;;6.97;98.94;99320.19;10386830;28;20038;-79
2022/09/28 06:39:39;;;;;;;16.20;8.15;;;;;;;6.96;99.05;99323.66;10384035;28;20058;-82
2022/09/28 06:44:41;;;;;;;15.48;8.13;;;;;;;6.99;98.96;99328.88;10385666;28;20041;-81
2022/09/28 06:50:11;;;;;;;13.00;6.93;;;;;;;7.04;99.04;99333.28;10390898;28;20092;-82
2022/09/28 06:55:44;;;;;;;14.80;8.23;;;;;;;7.18;99.14;99341.19;10358108;28;20070;-82
2022/09/28 07:00:49;;;;;;;15.38;8.20;;;;;;;7.20;99.18;99334.25;10384415;28;20121;-82
2022/09/28 07:05:53;;;;;;;15.90;9.30;;;;;;;7.25;99.17;99332.56;10397106;28;20076;-82
2022/09/28 07:11:15;;;;;;;20.25;8.85;;;;;;;7.33;99.29;99340.41;10382548;28;20053;-82
2022/09/28 07:16:26;;;;;;;17.45;9.27;;;;;;;7.46;99.14;99340.50;10402379;28;20132;-81
2022/09/28 07:21:51;;;;;;;15.73;8.25;;;;;;;7.49;99.24;99344.00;10382645;28;20567;-81
2022/09/28 07:27:05;;;;;;;14.43;8.10;;;;;;;7.56;99.22;99357.94;10379025;28;20057;-82
2022/09/28 07:32:27;;;;;;;18.05;9.23;;;;;;;7.56;99.22;99357.94;10396601;28;20065;-82
2022/09/28 07:37:30;;;;;;;18.75;9.00;;;;;;;7.83;99.20;99364.19;10396485;28;20050;-82
2022/09/28 07:42:31;;;;;;;17.35;9.60;;;;;;;7.93;99.04;99363.38;10363584;28;20050;-82
2022/09/28 07:47:33;;;;;;;22.25;10.95;;;;;;;7.99;99.10;99375.53;10371920;28;20054;-80
2022/09/28 07:52:57;;;;;;;21.13;9.75;;;;;;;8.08;98.97;99383.44;10380795;28;20144;-82
2022/09/28 07:58:04;;;;;;;20.83;10.15;;;;;;;8.13;98.86;99381.69;10374340;28;20056;-79
2022/09/28 08:03:31;;;;;;;21.38;10.00;;;;;;;8.20;98.77;99377.41;10391128;28;20044;-79
2022/09/28 08:08:34;;;;;;;22.77;10.90;;;;;;;8.29;98.44;99383.50;10387945;28;20568;-81
2022/09/28 08:13:36;;;;;;;23.70;11.38;;;;;;;8.32;98.20;99390.47;10374196;28;20080;-81
2022/09/28 08:19:05;;;;;;;24.13;11.55;;;;;;;8.45;97.93;99399.22;10361034;28;20053;-81
2022/09/28 08:24:06;;;;;;;24.90;11.40;;;;;;;8.44;97.52;99406.19;10391957;28;20052;-81
2022/09/28 08:29:08;;;;;;;22.10;11.18;;;;;;;8.48;97.20;99400.13;10386412;28;20049;-81
2022/09/28 08:34:37;;;;;;;24.90;11.77;;;;;;;8.58;96.73;99411.47;10400391;28;20548;-81
2022/09/28 08:39:55;;;;;;;22.13;10.77;;;;;;;8.61;96.33;99414.06;10380074;28;20049;-81
2022/09/28 08:45:23;;;;;;;21.35;11.00;;;;;;;8.65;96.30;99413.22;10408698;28;20575;-80
2022/09/28 08:51:00;;;;;;;20.15;11.45;;;;;;;8.79;96.07;99420.22;10387482;28;20149;-81
2022/09/28 08:56:30;;;;;;;21.67;10.02;;;;;;;9.08;95.98;99432.47;10403093;28;20049;-81
2022/09/28 09:01:37;;;;;;;22.58;11.25;;;;;;;9.16;95.71;99441.19;10370477;28;20121;-80
2022/09/28 09:07:13;;;;;;;21.95;11.60;;;;;;;9.29;94.91;99440.34;10379209;28;20045;-80
2022/09/28 09:12:49;;;;;;;21.02;10.35;;;;;;;9.55;94.55;99452.53;10386561;28;20072;-80
2022/09/28 09:18:17;;;;;;;24.70;12.13;;;;;;;9.70;94.09;99455.13;10387799;28;20065;-80
2022/09/28 09:23:56;;;;;;;23.60;11.15;;;;;;;9.67;93.57;99468.19;10360031;28;20332;-80
2022/09/28 09:29:26;;;;;;;21.50;10.75;;;;;;;9.81;92.93;99469.94;10383011;28;20045;-80
2022/09/28 09:34:36;;;;;;;21.40;10.88;;;;;;;10.19;92.77;99466.38;10372596;28;20081;-78
2022/09/28 09:40:29;;;;;;;17.38;9.55;;;;;;;11.12;92.31;99470.38;10398398;28;20222;-80
2022/09/28 09:46:10;;;;;;;15.27;7.88;;;;;;;11.66;89.30;99476.97;10389135;28;20128;-80
2022/09/28 09:51:47;;;;;;;20.25;10.05;;;;;;;11.58;87.34;99478.81;10377629;28;20049;-79
2022/09/28 09:56:55;;;;;;;16.75;8.75;;;;;;;11.45;86.53;99484.16;10381963;28;20045;-80
2022/09/28 10:02:27;;;;;;;15.27;8.52;;;;;;;11.28;85.76;99480.75;10379940;28;20054;-80
2022/09/28 10:07:58;;;;;;;19.63;8.65;;;;;;;11.06;85.35;99490.50;10394769;28;20050;-80
2022/09/28 10:13:00;;;;;;;17.10;7.57;;;;;;;11.55;85.15;99487.56;10377260;28;20038;-80
2022/09/28 10:18:09;;;;;;;16.30;8.02;;;;;;;11.84;84.18;99487.31;10354927;28;20054;-82
2022/09/28 10:23:35;;;;;;;16.65;8.32;;;;;;;12.07;83.31;99483.66;10382836;28;20045;-82
2022/09/28 10:28:54;;;;;;;16.40;7.65;;;;;;;12.18;82.48;99476.53;10409078;28;20041;-82
2022/09/28 10:33:57;;;;;;;13.75;6.95;;;;;;;12.15;81.11;99481.81;10383459;28;20077;-81
2022/09/28 10:39:00;;;;;;;15.80;7.80;;;;;;;12.41;81.49;99485.03;10366210;28;20788;-81
2022/09/28 10:44:15;;;;;;;13.75;6.75;;;;;;;12.34;80.55;99494.72;10363512;28;20069;-81
2022/09/28 10:49:43;;;;;;;12.40;5.88;;;;;;;12.45;80.50;99489.38;10380463;28;20417;-81
2022/09/28 10:54:52;;;;;;;11.23;5.40;;;;;;;12.65;79.35;99486.50;10378839;28;20045;-79
2022/09/28 10:59:56;;;;;;;13.93;5.13;;;;;;;12.14;78.15;99494.94;10343764;28;20434;-80
2022/09/28 11:05:26;;;;;;;11.57;4.30;;;;;;;11.99;78.51;99499.47;10361140;28;20319;-79
2022/09/28 11:10:32;;;;;;;9.57;3.53;;;;;;;11.78;77.72;99503.09;10356224;28;20061;-79
2022/09/28 11:15:44;;;;;;;7.40;3.60;;;;;;;11.66;77.32;99503.19;10358619;28;20509;-79
2022/09/28 11:21:13;;;;;;;9.27;3.95;;;;;;;11.66;76.89;99505.81;10357173;28;20053;-79
2022/09/28 11:26:24;;;;;;;10.80;4.18;;;;;;;11.81;77.33;99508.34;10348498;28;20053;-79
2022/09/28 11:31:28;;;;;;;10.77;4.05;;;;;;;12.14;77.53;99515.94;10333876;28;20046;-78
2022/09/28 11:37:10;;;;;;;8.90;3.88;;;;;;;12.40;76.63;99517.41;10349013;28;20046;-78
2022/09/28 11:42:34;;;;;;;8.23;3.58;;;;;;;12.11;75.53;99515.97;10356532;28;20094;-80
2022/09/28 11:47:39;;;;;;;9.60;3.47;;;;;;;12.48;74.97;99508.56;10349838;28;20136;-78
2022/09/28 11:53:08;;;;;;;7.13;3.33;;;;;;;12.62;74.28;99515.44;10352927;28;20054;-79
2022/09/28 11:58:13;;;;;;;6.83;2.67;;;;;;;12.52;73.99;99510.28;10367632;28;20081;-79
2022/09/28 12:03:38;;;;;;;8.85;3.85;;;;;;;12.48;74.48;99515.59;10374664;28;20053;-79
2022/09/28 12:08:46;;;;;;;11.55;3.67;;;;;;;13.15;74.25;99524.41;10394514;28;20174;-79
2022/09/28 12:14:20;;;;;;;6.93;3.28;;;;;;;13.36;71.86;99512.75;10379956;28;20421;-79
2022/09/28 12:19:37;;;;;;;6.68;2.47;;;;;;;13.77;71.21;99515.63;10376925;28;20247;-78
2022/09/28 12:24:44;;;;;;;9.60;3.63;;;;;;;13.67;70.08;99516.66;10381944;28;20045;-78
2022/09/28 12:29:49;;;;;;;6.65;2.53;;;;;;;13.67;70.08;99516.66;10395123;28;20050;-77
2022/09/28 12:34:51;;;;;;;5.57;2.35;;;;;;;14.46;69.55;99514.41;10397676;28;20123;-77
2022/09/28 12:40:07;;;;;;;7.07;3.00;;;;;;;14.50;69.50;99520.47;10376015;28;20052;-78
2022/09/28 12:45:37;;;;;;;6.30;2.83;;;;;;;14.73;68.69;99521.84;10400018;28;20096;-79
2022/09/28 12:51:14;;;;;;;6.22;1.98;;;;;;;14.34;66.45;99509.38;10379726;28;20155;-78
2022/09/28 12:56:28;;;;;;;2.83;1.17;;;;;;;13.82;65.19;99512.91;10390302;28;20068;-78
2022/09/28 13:01:48;;;;;;;3.17;1.42;;;;;;;14.24;65.06;99516.56;10381890;28;20061;-77
2022/09/28 13:07:12;;;;;;;2.55;1.10;;;;;;;14.70;64.39;99520.13;10386043;28;20273;-78
2022/09/28 13:12:43;;;;;;;3.50;1.45;;;;;;;14.57;63.63;99519.44;10399532;28;20111;-78
2022/09/28 13:17:56;;;;;;;4.22;1.23;;;;;;;14.09;64.02;99512.44;10339659;28;20057;-77
2022/09/28 13:23:24;;;;;;;3.80;1.67;;;;;;;13.68;64.38;99508.75;10389334;28;20045;-77
2022/09/28 13:28:41;;;;;;;2.80;1.60;;;;;;;13.53;65.61;99511.63;10340751;28;20054;-78
2022/09/28 13:39:50;;;;;;;3.33;1.40;;;;;;;13.55;64.66;99518.56;10377732;23;20050;-78
2022/09/28 13:46:37;;;;;;;3.55;1.85;;;;;;;13.54;65.34;99516.88;10258903;28;21667;-79
2022/09/28 14:04:20;;;;;;;6.13;2.08;;;;;;;13.80;65.83;99523.47;10322310;28;20057;-79
2022/09/28 14:09:47;;;;;;;4.20;2.08;;;;;;;14.09;65.83;99530.00;10322284;28;20822;-79
2022/09/28 14:14:50;;;;;;;6.18;1.98;;;;;;;14.06;66.19;99530.91;10344314;28;20142;-78
2022/09/28 14:20:06;;;;;;;5.53;1.52;;;;;;;13.86;65.89;99527.78;10356688;28;20046;-79
2022/09/28 14:25:24;;;;;;;3.40;1.67;;;;;;;14.03;66.23;99535.38;10357532;28;20045;-79
2022/09/28 14:30:47;;;;;;;2.22;1.45;;;;;;;13.79;65.98;99529.63;10354617;28;20130;-78
2022/09/28 14:35:58;;;;;;;3.08;1.25;;;;;;;13.65;66.13;99543.00;10356353;28;20078;-78
2022/09/28 14:41:08;;;;;;;3.47;1.50;;;;;;;13.43;66.00;99543.28;10356543;28;20148;-77
2022/09/28 14:46:11;;;;;;;2.17;1.30;;;;;;;13.15;66.73;99540.19;10359065;28;20050;-79
2022/09/28 14:51:25;;;;;;;2.75;1.60;;;;;;;13.03;67.51;99541.19;10358550;28;20050;-79
2022/09/28 14:56:29;;;;;;;10.93;2.28;;;;;;;12.88;67.75;99552.78;10360715;28;20081;-79
2022/09/28 15:01:35;;;;;;;12.57;1.90;;;;;;;12.86;68.20;99554.53;10357577;28;20352;-77
2022/09/28 15:06:45;;;;;;;2.25;1.17;;;;;;;12.65;68.28;99545.13;10325287;28;20056;-79
2022/09/28 15:11:46;;;;;;;3.53;1.23;;;;;;;12.66;68.43;99548.66;10342413;28;20394;-78
2022/09/28 15:16:49;;;;;;;4.00;0.93;;;;;;;12.65;68.62;99545.13;10339387;28;20046;-77
2022/09/28 15:21:50;;;;;;;5.78;1.88;;;;;;;12.60;67.88;99549.59;10357846;28;20050;-78
2022/09/28 15:26:52;;;;;;;4.50;1.20;;;;;;;12.65;68.04;99555.66;10359482;28;20065;-77
2022/09/28 15:31:54;;;;;;;3.05;1.10;;;;;;;12.55;68.51;99557.50;10357526;28;20104;-77
2022/09/28 15:36:57;;;;;;;3.40;1.17;;;;;;;12.58;68.02;99564.50;10336625;28;20202;-78
2022/09/28 15:41:59;;;;;;;1.73;0.82;;;;;;;12.43;68.01;99562.00;10357755;28;20079;-78
2022/09/28 15:47:14;;;;;;;5.40;1.48;;;;;;;12.61;68.27;99563.56;10357365;28;20050;-76
2022/09/28 15:52:51;;;;;;;3.20;1.25;;;;;;;12.62;68.22;99571.44;10336764;28;20049;-77
2022/09/28 15:58:11;;;;;;;5.28;1.38;;;;;;;12.66;68.56;99567.03;10352461;28;20046;-77
2022/09/28 16:03:15;;;;;;;2.67;1.38;;;;;;;12.79;68.78;99573.00;10354392;28;20053;-77
2022/09/28 16:08:20;;;;;;;2.83;1.30;;;;;;;12.69;69.10;99577.50;10364315;28;20050;-78
2022/09/28 16:13:23;;;;;;;2.78;1.40;;;;;;;12.49;69.02;99575.97;10353882;28;20695;-76
2022/09/28 16:18:28;;;;;;;3.15;1.25;;;;;;;12.35;69.36;99577.84;10353619;28;20136;-77
2022/09/28 16:23:33;;;;;;;2.78;1.15;;;;;;;12.41;70.12;99579.53;10331101;28;20081;-77
2022/09/28 16:28:35;;;;;;;2.53;1.50;;;;;;;12.31;70.47;99578.75;10309496;28;20053;-77
2022/09/28 16:33:38;;;;;;;3.55;1.52;;;;;;;12.29;71.43;99585.78;10353047;28;20502;-77
2022/09/28 16:38:45;;;;;;;4.75;1.50;;;;;;;12.18;72.05;99591.13;10358421;28;20527;-77
2022/09/28 16:43:47;;;;;;;3.67;1.30;;;;;;;12.12;72.56;99589.41;10358276;28;20046;-77
2022/09/28 16:48:50;;;;;;;5.30;1.30;;;;;;;12.03;73.28;99589.50;10359421;28;20140;-77
2022/09/28 16:59:13;;;;;;;3.65;1.80;;;;;;;11.85;74.26;99598.34;10356461;28;20513;-78
2022/09/28 17:04:15;;;;;;;7.60;1.90;;;;;;;11.73;75.07;99601.91;10358592;28;20042;-77
2022/09/28 17:09:17;;;;;;;6.38;2.45;;;;;;;11.63;75.63;99600.22;10358555;28;20510;-77
2022/09/28 17:14:22;;;;;;;7.15;2.80;;;;;;;11.57;76.09;99608.13;10357487;28;20038;-77
2022/09/28 17:19:24;;;;;;;5.60;2.40;;;;;;;11.46;76.68;99605.56;10354371;28;20047;-76
2022/09/28 17:24:26;;;;;;;8.40;2.67;;;;;;;11.33;77.32;99607.38;10347315;28;20077;-76
2022/09/28 17:29:29;;;;;;;5.93;2.10;;;;;;;11.23;78.15;99624.00;10358087;28;20058;-76
2022/09/28 17:34:30;;;;;;;5.15;2.03;;;;;;;11.08;78.89;99623.22;10337916;28;20096;-77
2022/09/28 17:39:32;;;;;;;6.72;2.67;;;;;;;10.98;79.53;99615.41;10336539;28;20145;-77
2022/09/28 17:44:34;;;;;;;16.08;2.80;;;;;;;10.81;80.22;99620.66;10353969;28;20464;-77
2022/09/28 17:49:37;;;;;;;6.00;2.80;;;;;;;10.65;80.78;99623.31;10345531;28;20069;-77
2022/09/28 17:54:40;;;;;;;7.75;3.40;;;;;;;10.51;81.21;99622.47;10339944;28;20449;-75
2022/09/28 17:59:42;;;;;;;7.30;3.47;;;;;;;10.38;81.66;99630.34;10350998;28;20489;-77
2022/09/28 18:04:44;;;;;;;9.10;3.17;;;;;;;10.23;82.23;99622.47;10354750;28;20037;-77
2022/09/28 18:09:55;;;;;;;11.15;3.70;;;;;;;10.06;82.72;99630.31;10338052;28;20057;-77
2022/09/28 18:14:58;;;;;;;8.38;3.53;;;;;;;9.93;83.14;99629.41;10352605;28;20092;-77
2022/09/28 18:20:00;;;;;;;8.63;3.80;;;;;;;9.82;83.68;99628.56;10353734;28;20054;-76
2022/09/28 18:25:03;;;;;;;9.88;5.18;;;;;;;9.68;83.96;99628.50;10339096;28;20088;-77
2022/09/28 18:30:06;;;;;;;12.77;6.90;;;;;;;9.56;84.53;99639.78;10355895;28;20054;-77
2022/09/28 18:35:10;;;;;;;12.30;5.63;;;;;;;9.38;84.80;99648.44;10338961;28;20061;-77
2022/09/28 18:40:14;;;;;;;9.82;5.20;;;;;;;9.19;85.17;99648.38;10338654;28;20540;-76
2022/09/28 18:45:17;;;;;;;9.52;3.78;;;;;;;9.01;85.48;99650.91;10356442;28;20054;-76
2022/09/28 18:50:19;;;;;;;10.30;5.32;;;;;;;8.86;85.60;99659.53;10353895;28;20056;-77
2022/09/28 18:55:22;;;;;;;12.55;4.68;;;;;;;8.74;86.18;99668.16;10356417;28;20060;-77
2022/09/28 19:00:25;;;;;;;11.30;4.80;;;;;;;8.58;86.38;99667.16;10355857;28;20057;-76
2022/09/28 19:05:27;;;;;;;9.27;4.28;;;;;;;8.45;86.75;99680.97;10354902;28;20054;-77
2022/09/28 19:10:29;;;;;;;10.05;4.22;;;;;;;8.31;86.97;99675.63;10355180;28;20049;-76
2022/09/28 19:15:31;;;;;;;9.73;4.75;;;;;;;8.18;87.21;99687.69;10336613;28;20049;-76
2022/09/28 19:20:33;;;;;;;11.23;5.18;;;;;;;8.03;87.52;99684.91;10336813;28;20054;-77
2022/09/28 19:25:35;;;;;;;10.45;5.03;;;;;;;7.94;87.79;99683.97;10348461;28;20057;-77
2022/09/28 19:30:38;;;;;;;10.85;5.20;;;;;;;7.85;88.08;99699.53;10324686;28;20521;-77
2022/09/28 19:35:40;;;;;;;11.55;4.70;;;;;;;7.74;88.22;99701.13;10339148;28;20072;-77
2022/09/28 19:40:44;;;;;;;11.52;5.78;;;;;;;7.59;88.46;99701.81;10307898;28;20050;-77
2022/09/28 19:45:51;;;;;;;15.27;5.22;;;;;;;7.51;88.64;99699.13;10317997;28;20078;-77
2022/09/28 19:51:02;;;;;;;7.93;4.00;;;;;;;7.44;88.93;99702.50;10330014;28;20641;-77
2022/09/28 19:56:04;;;;;;;27.48;11.15;;;;;;;7.41;89.22;99710.28;10339122;28;20046;-78
2022/09/28 20:01:06;;;;;;;13.68;5.65;;;;;;;7.35;89.29;99712.81;10341901;28;20445;-77
2022/09/28 20:06:07;;;;;;;14.43;6.07;;;;;;;7.24;89.57;99716.16;10321489;28;20057;-77
2022/09/28 20:11:14;;;;;;;16.70;6.35;;;;;;;7.21;89.80;99717.84;10345239;28;20054;-77
2022/09/28 20:16:19;;;;;;;16.05;6.78;;;;;;;7.08;89.91;99715.06;10357934;28;20061;-78
2022/09/28 20:21:23;;;;;;;39.15;9.80;;;;;;;6.96;89.96;99721.84;10362654;28;20088;-77
2022/09/28 20:26:28;;;;;;;30.50;10.10;;;;;;;6.85;89.99;99727.75;10344239;28;20165;-78
2022/09/28 20:31:30;;;;;;;22.48;8.00;;;;;;;6.76;90.27;99716.34;10362203;28;20056;-77
2022/09/28 20:36:33;;;;;;;27.90;10.15;;;;;;;6.72;90.44;99710.19;10345063;28;20049;-77
2022/09/28 20:41:35;;;;;;;26.83;9.15;;;;;;;6.65;90.58;99722.25;10362940;28;20077;-76
2022/09/28 20:46:37;;;;;;;23.70;9.13;;;;;;;6.61;90.78;99722.19;10328327;28;20506;-77
2022/09/28 20:51:39;;;;;;;18.27;7.95;;;;;;;6.47;90.98;99724.53;10363275;28;20152;-77
2022/09/28 20:56:42;;;;;;;16.70;8.00;;;;;;;6.33;90.87;99730.38;10363704;28;20049;-77
2022/09/28 21:01:44;;;;;;;21.92;7.55;;;;;;;6.29;91.03;99735.50;10356337;28;20046;-77
2022/09/28 21:06:47;;;;;;;14.85;5.63;;;;;;;6.23;91.04;99735.38;10342388;28;20506;-76
2022/09/28 21:11:48;;;;;;;16.20;6.53;;;;;;;6.10;91.00;99732.56;10343374;28;20058;-76
2022/09/28 21:16:51;;;;;;;12.73;5.45;;;;;;;6.02;91.16;99741.97;10359882;28;20104;-77
2022/09/28 21:21:54;;;;;;;11.40;5.55;;;;;;;5.99;91.27;99731.47;10364003;28;20062;-76
2022/09/28 21:26:57;;;;;;;13.93;5.75;;;;;;;5.93;91.50;99732.22;10341004;28;20064;-77
2022/09/28 21:32:00;;;;;;;11.68;5.53;;;;;;;5.80;91.32;99744.09;10346451;28;20054;-77
2022/09/28 21:37:03;;;;;;;16.83;5.88;;;;;;;5.73;91.59;99751.75;10360539;28;20216;-76
2022/09/28 21:42:05;;;;;;;9.70;4.88;;;;;;;5.72;91.57;99747.38;10361868;28;20116;-76
2022/09/28 21:47:08;;;;;;;13.05;5.25;;;;;;;5.66;91.67;99758.56;10359388;28;20046;-77
2022/09/28 21:52:10;;;;;;;8.35;4.60;;;;;;;5.59;91.80;99764.47;10358856;28;20633;-77
2022/09/28 21:57:11;;;;;;;9.35;4.40;;;;;;;5.52;91.77;99766.03;10359374;28;20097;-77
2022/09/28 22:02:14;;;;;;;11.10;5.28;;;;;;;5.43;91.92;99763.25;10355630;28;20627;-76
2022/09/28 22:07:16;;;;;;;12.77;5.15;;;;;;;5.38;91.96;99772.66;10340502;28;20513;-77
2022/09/28 22:12:18;;;;;;;13.25;5.60;;;;;;;5.37;92.13;99773.50;10358608;28;20474;-77
2022/09/28 22:17:21;;;;;;;13.52;6.07;;;;;;;5.27;91.83;99780.22;10357323;28;20048;-77
2022/09/28 22:22:24;;;;;;;11.73;5.72;;;;;;;5.21;92.06;99780.94;10325109;28;20049;-76
2022/09/28 22:27:30;;;;;;;13.75;5.85;;;;;;;5.17;92.43;99773.06;10356498;28;20200;-77
2022/09/28 22:32:32;;;;;;;13.00;5.22;;;;;;;5.16;92.37;99787.75;10340072;28;20655;-77
2022/09/28 22:37:34;;;;;;;11.27;5.40;;;;;;;5.05;92.24;99787.50;10339347;28;20141;-76
2022/09/28 22:42:37;;;;;;;13.43;5.60;;;;;;;5.00;92.23;99798.59;10355543;28;20053;-78
2022/09/28 22:47:39;;;;;;;17.80;5.82;;;;;;;4.92;92.26;99798.41;10360894;28;20817;-76
2022/09/28 22:52:41;;;;;;;11.27;5.97;;;;;;;4.86;92.46;99798.28;10338373;28;20089;-76
2022/09/28 22:57:43;;;;;;;12.18;5.55;;;;;;;4.83;92.50;99801.66;10355089;28;20080;-77
2022/09/28 23:02:45;;;;;;;11.77;5.85;;;;;;;4.77;92.48;99807.59;10362326;28;20422;-77
2022/09/28 23:07:47;;;;;;;14.02;6.35;;;;;;;4.69;92.52;99816.91;10354027;28;20046;-77
2022/09/28 23:12:52;;;;;;;18.98;6.93;;;;;;;4.55;92.60;99807.91;10330199;28;20042;-77
2022/09/28 23:17:55;;;;;;;13.55;6.10;;;;;;;4.51;92.58;99821.63;10332362;28;20058;-77
2022/09/28 23:22:56;;;;;;;11.43;5.85;;;;;;;4.51;92.74;99808.66;10353724;28;20050;-77
2022/09/28 23:27:58;;;;;;;13.95;6.30;;;;;;;4.48;92.87;99811.16;10361039;28;20469;-77
2022/09/28 23:33:01;;;;;;;13.55;6.00;;;;;;;4.43;92.73;99817.09;10337671;28;20054;-77
2022/09/28 23:38:03;;;;;;;12.57;5.60;;;;;;;4.39;93.04;99810.06;10354530;28;20143;-76
2022/09/28 23:43:05;;;;;;;11.45;5.65;;;;;;;4.37;93.03;99816.06;10354783;28;20398;-77
2022/09/28 23:48:08;;;;;;;14.18;5.97;;;;;;;4.35;93.17;99808.22;10348306;28;20521;-76
2022/09/28 23:53:12;;;;;;;15.18;7.10;;;;;;;4.29;93.17;99814.97;10358248;28;20060;-77
2022/09/28 23:58:15;;;;;;;14.80;6.47;;;;;;;4.24;93.31;99813.13;10322501;28;20045;-77
